• Join FlightAware (Why Join?)
  • Login
  • US Flag 
07:44PM EDT


 

Airport Tracker/Info


-or-


 

Live Flight TrackerFlight Track Log ✈ UPS960 ✈ 11-May-2013 ✈ KSDF - KMHR

Flight Track Log - Related Links

Times and Time Zones

All times are in EDT time to prevent confusion due to time zone crossing. See the UPS960 flight status page for this flight to view local times or setup timezone preferences in your user account.

Time Position Orientation Groundspeed Altitude Reporting Facility
EDT Latitude Longitude Course Direction KTS MPH feet Rate Location/Type
05:05AM 38.2539 -85.8056 283° West 238 274 36,000  Level Indianapolis Center
05:06AM 38.2744 -85.8861 288° West 246 283 7,400 -13,080 Descending Indianapolis Center
05:07AM 38.2850 -85.9731 279° West 246 283 9,700 1,920 Climbing Indianapolis Center
05:08AM 38.2972 -86.0731 279° West 280 322 11,300 1,980 Climbing Indianapolis Center
05:09AM 38.3106 -86.1947 278° West 336 387 13,800 2,700 Climbing Indianapolis Center
05:10AM 38.2992 -86.6206 283° West  Level FlightAware Approximate
05:10AM 38.3286 -86.3239 280° West 366 421 16,800  Level Indianapolis Center
05:11AM 38.3500 -86.4592 281° West 384 442 19,800 2,760 Climbing Indianapolis Center
05:12AM 38.3703 -86.6006 280° West 401 461 22,400 2,400 Climbing Indianapolis Center
05:13AM 38.3900 -86.7447 280° West 410 472 24,700 2,160 Climbing Indianapolis Center
05:14AM 38.4111 -86.8917 280° West 423 487 26,800 1,980 Climbing Indianapolis Center
05:15AM 38.4317 -87.0394 280° West 432 497 28,800 2,160 Climbing Indianapolis Center
05:16AM 38.4525 -87.1858 280° West 429 494 31,200 2,160 Climbing Indianapolis Center
05:17AM 38.4725 -87.3292 280° West 416 479 33,200 1,980 Climbing Indianapolis Center
05:18AM 38.4917 -87.4728 280° West 412 474 35,300 1,380 Climbing Indianapolis Center
05:19AM 38.5106 -87.6136 280° West 403 464 36,000 300 Climbing Indianapolis Center
05:20AM 38.5308 -87.7583 280° West 412 474 36,000  Level Indianapolis Center
05:21AM 38.5489 -87.9033 279° West 415 478 36,000  Level Indianapolis Center
05:21AM 38.5489 -87.9033 279° West 410 472 36,000  Level Kansas City Center
05:22AM 38.5675 -88.0492 279° West 413 475 36,000  Level Kansas City Center
05:23AM 38.5861 -88.1931 279° West 412 474 36,000  Level Kansas City Center
05:24AM 38.6056 -88.3386 280° West 413 475 36,000  Level Kansas City Center
05:25AM 38.6247 -88.4844 280° West 414 476 36,000  Level Kansas City Center
05:26AM 38.6411 -88.6317 278° West 416 479 36,000  Level Kansas City Center
05:27AM 38.6592 -88.7733 279° West 417 480 36,000  Level Kansas City Center
05:28AM 38.6775 -88.9167 279° West 412 474 36,000  Level Kansas City Center
05:29AM 38.7003 -89.0878 280° West 414 476 36,000  Level Kansas City Center
05:30AM 38.7172 -89.2322 279° West 412 474 36,000  Level Kansas City Center
05:31AM 38.7350 -89.3767 279° West 413 475 36,000  Level Kansas City Center
05:32AM 38.7519 -89.5219 279° West 415 478 36,000  Level Kansas City Center
05:33AM 38.7700 -89.6708 279° West 416 479 36,000  Level Kansas City Center
05:34AM 38.7867 -89.8181 278° West 418 481 36,000  Level Kansas City Center
05:35AM 38.8036 -89.9636 279° West 417 480 36,000  Level Kansas City Center
05:36AM 38.8189 -90.0953 279° West 418 481 36,000  Level Kansas City Center
05:37AM 38.8361 -90.2436 279° West 420 483 36,000  Level Kansas City Center
05:38AM 38.8528 -90.3925 278° West 421 484 36,000  Level Kansas City Center
05:39AM 38.8714 -90.5711 278° West 420 483 36,000  Level Kansas City Center
05:40AM 38.8836 -90.6931 277° West 417 480 36,000  Level Kansas City Center
05:41AM 38.8997 -90.8414 278° West 421 484 36,000  Level Kansas City Center
05:42AM 38.9164 -90.9903 278° West 422 486 36,000  Level Kansas City Center
05:43AM 38.9306 -91.1400 277° West 423 487 36,000  Level Kansas City Center
05:44AM 38.9461 -91.2911 278° West 426 490 36,000  Level Kansas City Center
05:45AM 38.9611 -91.4406 277° West 425 489 36,000  Level Kansas City Center
05:46AM 38.9797 -91.6225 278° West 427 491 36,000  Level Kansas City Center
05:47AM 38.9944 -91.7736 277° West 427 491 36,000  Level Kansas City Center
05:48AM 39.0078 -91.9228 277° West 425 489 36,000  Level Kansas City Center
05:49AM 39.0231 -92.0758 277° West 426 490 36,000  Level Kansas City Center
05:50AM 39.0389 -92.2292 278° West 431 496 36,000  Level Kansas City Center
05:51AM 39.0517 -92.3800 276° West 428 493 36,000  Level Kansas City Center
05:52AM 39.0661 -92.5306 277° West 426 490 36,000  Level Kansas City Center
05:53AM 39.0800 -92.6839 277° West 428 493 36,000  Level Kansas City Center
05:54AM 39.0936 -92.8411 276° West 429 494 36,000  Level Kansas City Center
05:55AM 39.1069 -92.9950 276° West 433 498 36,000  Level Kansas City Center
05:56AM 39.1200 -93.1472 276° West 431 496 36,000  Level Kansas City Center
05:57AM 39.1333 -93.3014 276° West 434 499 36,000  Level Kansas City Center
05:58AM 39.1464 -93.4658 276° West 440 506 36,000  Level Kansas City Center
05:59AM 39.1603 -93.6178 277° West 439 505 36,000  Level Kansas City Center
06:00AM 39.1714 -93.7647 276° West 439 505 36,000  Level Kansas City Center
06:01AM 39.1839 -93.9136 276° West 437 503 36,000  Level Kansas City Center
06:02AM 39.1975 -94.0883 276° West 438 504 36,000  Level Kansas City Center
06:03AM 39.2089 -94.2375 276° West 437 503 36,000  Level Kansas City Center
06:04AM 39.2197 -94.3858 275° West 435 501 36,000  Level Kansas City Center
06:05AM 39.2328 -94.5597 276° West 437 503 36,000  Level Kansas City Center
06:06AM 39.2428 -94.7067 275° West 432 497 36,000  Level Kansas City Center
06:07AM 39.2531 -94.8567 275° West 436 502 36,000  Level Kansas City Center
06:08AM 39.2656 -95.0297 275° West 436 502 36,000  Level Kansas City Center
06:09AM 39.2758 -95.1878 275° West 434 499 36,000  Level Kansas City Center
06:10AM 39.2864 -95.3431 275° West 435 501 36,000  Level Kansas City Center
06:11AM 39.2969 -95.4897 275° West 434 499 36,000  Level Kansas City Center
06:12AM 39.3067 -95.6383 275° West 435 501 36,000  Level Kansas City Center
06:13AM 39.3161 -95.7875 275° West 436 502 36,000  Level Kansas City Center
06:14AM 39.3253 -95.9619 274° West 438 504 36,000  Level Kansas City Center
06:15AM 39.3350 -96.1106 275° West 435 501 36,000  Level Kansas City Center
06:16AM 39.3436 -96.2686 274° West 437 503 36,000  Level Kansas City Center
06:17AM 39.3525 -96.4244 274° West 437 503 36,000  Level Kansas City Center
06:18AM 39.3614 -96.5853 274° West 437 503 36,000  Level Kansas City Center
06:19AM 39.3708 -96.7353 275° West 437 503 36,000  Level Kansas City Center
06:20AM 39.3797 -96.9108 274° West 439 505 36,000  Level Kansas City Center
06:21AM 39.3883 -97.0614 274° West 439 505 36,000  Level Kansas City Center
06:22AM 39.3953 -97.2117 273° West 438 504 36,000  Level Kansas City Center
06:23AM 39.4025 -97.3636 274° West 441 507 36,000  Level Kansas City Center
06:24AM 39.4111 -97.5383 274° West 439 505 36,000  Level Kansas City Center
06:25AM 39.4197 -97.6961 274° West 439 505 36,000  Level Kansas City Center
06:26AM 39.4269 -97.8550 273° West 441 507 36,000  Level Kansas City Center
06:27AM 39.4333 -98.0169 273° West 440 506 36,000  Level Kansas City Center
06:28AM 39.4397 -98.1681 273° West 440 506 36,000  Level Kansas City Center
06:29AM 39.4419 -98.2350 272° West 439 505 36,000  Level Denver Center
06:30AM 39.4492 -98.3928 273° West 440 506 36,000  Level Denver Center
06:31AM 39.4547 -98.5514 273° West 440 506 36,000  Level Denver Center
06:32AM 39.4617 -98.7081 273° West 437 503 36,000  Level Denver Center
06:33AM 39.4667 -98.8667 272° West 439 505 36,000  Level Denver Center
06:34AM 39.4722 -99.0231 273° West 435 501 36,000  Level Denver Center
06:35AM 39.4781 -99.1808 273° West 438 504 36,000  Level Denver Center
06:36AM 39.4828 -99.3386 272° West 439 505 36,000  Level Denver Center
06:37AM 39.4881 -99.4956 273° West 436 502 36,000  Level Denver Center
06:38AM 39.4925 -99.6544 272° West 440 506 36,000  Level Denver Center
06:39AM 39.4967 -99.8119 272° West 438 504 36,000  Level Denver Center
06:40AM 39.5011 -99.9689 272° West 439 505 36,000  Level Denver Center
06:41AM 39.5058 -100.1447 272° West 439 505 36,000  Level Denver Center
06:42AM 39.5089 -100.2964 272° West 439 505 36,000  Level Denver Center
06:43AM 39.5128 -100.4483 272° West 442 509 36,000  Level Denver Center
06:44AM 39.5158 -100.6014 272° West 443 510 36,000  Level Denver Center
06:45AM 39.5197 -100.7792 272° West 443 510 36,000  Level Denver Center
06:46AM 39.5228 -100.9333 272° West 446 513 36,000  Level Denver Center
06:47AM 39.5250 -101.0850 271° West 441 507 36,000  Level Denver Center
06:48AM 39.5281 -101.2392 272° West 446 513 36,000  Level Denver Center
06:49AM 39.5306 -101.4178 271° West 444 511 36,000  Level Denver Center
06:50AM 39.5331 -101.5719 271° West 447 514 36,000  Level Denver Center
06:51AM 39.5344 -101.6986 271° West 444 511 36,000  Level Denver Center
06:52AM 39.5350 -101.8764 270° West 442 509 36,000  Level Denver Center
06:53AM 39.5378 -102.0553 271° West 444 511 36,000  Level Denver Center
06:54AM 39.5383 -102.2097 270° West 447 514 36,000  Level Denver Center
06:55AM 39.5397 -102.3614 271° West 443 510 36,000  Level Denver Center
06:56AM 39.5406 -102.5394 270° West 444 511 36,000  Level Denver Center
06:57AM 39.5411 -102.6928 270° West 445 512 36,000  Level Denver Center
06:58AM 39.5406 -102.8558 270° West 448 516 36,000  Level Denver Center
06:59AM 39.5411 -103.0086 270° West 445 512 36,000  Level Denver Center
07:00AM 39.5411 -103.2142 270° West 448 516 36,000  Level Denver Center
07:01AM 39.5403 -103.3936 270° West 447 514 36,000  Level Denver Center
07:02AM 39.5403 -103.5469 270° West 446 513 36,000  Level Denver Center
07:03AM 39.5394 -103.7258 270° West 446 513 36,000  Level Denver Center
07:04AM 39.5397 -103.8817 270° West 449 517 36,000  Level Denver Center
07:05AM 39.5364 -104.0425 269° West 450 518 36,000  Level Denver Center
07:06AM 39.5347 -104.2039 269° West 450 518 36,000  Level Denver Center
07:07AM 39.5333 -104.3644 269° West 447 514 36,000  Level Denver Center
07:08AM 39.5311 -104.5292 269° West 446 513 36,000  Level Denver Center
07:09AM 39.5292 -104.6867 269° West 448 516 36,000  Level Denver Center
07:10AM 39.5267 -104.8478 269° West 447 514 36,000  Level Denver Center
07:11AM 39.5242 -105.0103 269° West 451 519 36,000  Level Denver Center
07:12AM 39.5203 -105.1694 268° West 439 505 36,000  Level Denver Center
07:13AM 39.5189 -105.3333 269° West 457 526 36,000  Level Denver Center
07:14AM 39.5133 -105.4933 267° West 448 516 36,000  Level Denver Center
07:15AM 39.5103 -105.6567 269° West 456 525 36,000  Level Denver Center
07:16AM 39.5056 -105.8242 268° West 445 512 36,000  Level Denver Center
07:17AM 39.5039 -105.9603 269° West 444 511 36,000  Level Denver Center
07:18AM 39.4989 -106.1250 268° West 455 524 36,000  Level Denver Center
07:19AM 39.4956 -106.2883 269° West 455 524 36,000  Level Denver Center
07:20AM 39.4911 -106.4508 268° West 452 520 36,000  Level Denver Center
07:21AM 39.4861 -106.6289 268° West 453 521 36,000  Level Denver Center
07:22AM 39.4811 -106.7856 268° West 456 525 36,000  Level Denver Center
07:23AM 39.4728 -106.9692 267° West 456 525 36,000  Level Denver Center
07:24AM 39.4689 -107.1258 268° West 456 525 36,000  Level Denver Center
07:25AM 39.4636 -107.2833 268° West 457 526 36,000  Level Denver Center
07:26AM 39.4572 -107.4411 267° West 458 527 36,000  Level Denver Center
07:27AM 39.4500 -107.6250 267° West 458 527 36,000  Level Denver Center
07:28AM 39.4447 -107.7817 268° West 456 525 36,000  Level Denver Center
07:29AM 39.4367 -107.9406 266° West 462 532 36,000  Level Denver Center
07:30AM 39.4303 -108.0986 267° West 459 528 36,000  Level Denver Center
07:31AM 39.4219 -108.2844 267° West 462 532 36,000  Level Denver Center
07:32AM 39.4156 -108.4433 267° West 455 524 36,000  Level Denver Center
07:33AM 39.4075 -108.6031 266° West 461 531 36,000  Level Denver Center
07:34AM 39.4000 -108.7644 267° West 463 533 36,000  Level Denver Center
07:35AM 39.3914 -108.9256 266° West 463 533 36,000  Level Denver Center
07:36AM 39.3817 -109.1142 266° West 466 536 36,000  Level Denver Center
07:37AM 39.3733 -109.2733 266° West 464 534 36,000  Level Denver Center
07:38AM 39.3644 -109.4331 266° West 464 534 36,000  Level Denver Center
07:39AM 39.3556 -109.5928 266° West 465 535 36,000  Level Denver Center
07:40AM 39.3453 -109.7789 266° West 464 534 36,000  Level Denver Center
07:41AM 39.3353 -109.9375 265° West 463 533 36,000  Level Denver Center
07:42AM 39.3256 -110.0969 266° West 463 533 36,000  Level Denver Center
07:43AM 39.3147 -110.2825 266° West 464 534 36,000  Level Denver Center
07:44AM 39.3042 -110.4400 265° West 461 531 36,000  Level Denver Center
07:45AM 39.2939 -110.5975 265° West 460 529 36,000  Level Denver Center
07:46AM 39.2869 -110.7572 267° West 462 532 36,000  Level Denver Center
07:47AM 39.2725 -110.9403 264° West 461 531 36,000  Level Salt Lake Center
07:48AM 39.2606 -111.1239 265° West 461 531 36,000  Level Salt Lake Center
07:49AM 39.2497 -111.2803 265° West 459 528 36,000  Level Salt Lake Center
07:50AM 39.2378 -111.4386 264° West 460 529 36,000  Level Salt Lake Center
07:51AM 39.2256 -111.6003 264° West 457 526 36,000  Level Salt Lake Center
07:52AM 39.2144 -111.7631 265° West 458 527 36,000  Level Salt Lake Center
07:53AM 39.2014 -111.9261 264° West 459 528 36,000  Level Salt Lake Center
07:54AM 39.1881 -112.0889 264° West 459 528 36,000  Level Salt Lake Center
07:55AM 39.1758 -112.2517 265° West 459 528 36,000  Level Salt Lake Center
07:56AM 39.1631 -112.4147 264° West 460 529 36,000  Level Salt Lake Center
07:57AM 39.1489 -112.5778 264° West 460 529 36,000  Level Salt Lake Center
07:58AM 39.1353 -112.7403 264° West 461 531 36,000  Level Salt Lake Center
07:59AM 39.1217 -112.9025 264° West 459 528 36,000  Level Salt Lake Center
08:00AM 39.1075 -113.0647 264° West 458 527 36,000  Level Salt Lake Center
08:01AM 39.0936 -113.2275 264° West 458 527 36,000  Level Salt Lake Center
08:02AM 39.0786 -113.3914 263° West 462 532 36,000  Level Salt Lake Center
08:04AM 39.0631 -113.5558 263° West 465 535 36,000  Level Salt Lake Center
08:05AM 39.0492 -113.7194 264° West 464 534 36,000  Level Salt Lake Center
08:06AM 39.0292 -113.9164 263° West 464 534 36,000  Level Salt Lake Center
08:07AM 39.0136 -114.0833 263° West 470 541 36,000  Level Salt Lake Center
08:08AM 38.9986 -114.2489 263° West 470 541 36,000  Level Salt Lake Center
08:09AM 38.9817 -114.4161 263° West 472 543 36,000  Level Salt Lake Center
08:10AM 38.9644 -114.5833 263° West 473 544 36,000  Level Salt Lake Center
08:11AM 38.9475 -114.7517 263° West 476 548 36,000  Level Salt Lake Center
08:12AM 38.9306 -114.9214 263° West 480 552 36,000  Level Salt Lake Center
08:13AM 38.9125 -115.0911 262° West 482 555 36,000  Level Salt Lake Center
08:14AM 38.8939 -115.2614 262° West 483 556 36,000  Level Salt Lake Center
08:15AM 38.8767 -115.4103 262° West 484 557 36,000  Level Salt Lake Center
08:16AM 38.8592 -115.5797 262° West 480 552 36,000  Level Salt Lake Center
08:17AM 38.8408 -115.7481 262° West 478 550 36,000  Level Salt Lake Center
08:18AM 38.8217 -115.9164 262° West 478 550 36,000  Level Salt Lake Center
08:19AM 38.8028 -116.0839 262° West 476 548 36,000  Level Salt Lake Center
08:20AM 38.7839 -116.2503 262° West 474 545 36,000  Level Salt Lake Center
08:21AM 38.7642 -116.4169 261° West 472 543 36,000  Level Oakland Center
08:22AM 38.7447 -116.5828 262° West 472 543 36,000  Level Oakland Center
08:23AM 38.7261 -116.7481 262° West 471 542 36,000  Level Oakland Center
08:24AM 38.7061 -116.9128 261° West 471 542 36,000  Level Oakland Center
08:25AM 38.6867 -117.0756 261° West 468 539 36,000  Level Oakland Center
08:26AM 38.6656 -117.2394 261° West 470 541 36,000  Level Oakland Center
08:27AM 38.6464 -117.4019 261° West 467 537 36,000  Level Oakland Center
08:28AM 38.6253 -117.5658 261° West 470 541 36,000  Level Oakland Center
08:29AM 38.6042 -117.7292 261° West 470 541 36,000  Level Oakland Center
08:30AM 38.5831 -117.8939 261° West 472 543 36,000  Level Oakland Center
08:31AM 38.5664 -118.0586 263° West 470 541 36,000  Level Oakland Center
08:32AM 38.5833 -118.2208 278° West 462 532 36,000  Level Oakland Center
08:33AM 38.6014 -118.3794 278° West 455 524 36,000  Level Oakland Center
08:34AM 38.6167 -118.5392 277° West 451 519 36,000  Level Oakland Center
08:35AM 38.6331 -118.6994 278° West 452 520 36,000 -60 Level Oakland Center
08:36AM 38.6489 -118.8600 277° West 453 521 35,900 -1,560 Descending Oakland Center
08:37AM 38.6636 -119.0200 277° West 450 518 32,900 -2,640 Descending Oakland Center
08:38AM 38.6797 -119.1817 277° West 455 524 30,600 -2,400 Descending Oakland Center
08:39AM 38.6939 -119.3358 277° West 438 504 28,200 -2,340 Descending Oakland Center
08:40AM 38.7092 -119.4878 277° West 431 496 26,000 -2,100 Descending Oakland Center
08:41AM 38.7256 -119.6361 278° West 423 487 24,000 -2,100 Descending Oakland Center
08:42AM 38.7422 -119.7919 278° West 401 461 21,900 -2,160 Descending Oakland Center
08:43AM 38.7558 -119.9294 277° West 391 450 19,700 -2,040 Descending Oakland Center
08:44AM 38.7711 -120.0644 278° West 386 444 17,800 -2,220 Descending Oakland Center
08:45AM 38.7808 -120.1936 276° West 371 427 15,300 -2,940 Descending Oakland Center
08:46AM 38.7675 -120.3381 263° West 400 460 12,000 -2,460 Descending Oakland Center
08:47AM 38.7531 -120.4736 262° West 393 452 10,400 -1,260 Descending Oakland Center
08:48AM 38.7436 -120.5750 263° West 307 353 9,500 -1,140 Descending Oakland Center
08:49AM 38.7331 -120.6758 262° West 287 330 8,200 -1,320 Descending Oakland Center
08:50AM 38.7261 -120.7747 265° West 284 327 6,900 -1,080 Descending Oakland Center
08:51AM 38.7392 -120.8714 280° West 278 320 6,100 -420 Descending Oakland Center
08:52AM 38.7469 -120.9597 276° West 257 296 6,100 -600 Level Oakland Center
08:53AM 38.7106 -121.0247 234° Southwest 235 270 4,900 -1,200 Descending Oakland Center
08:54AM 38.6744 -121.0883 234° Southwest 225 259 3,700 -1,200 Descending Oakland Center
08:54AM 38.6500 -121.1333 235° Southwest 213 245 2,900 -1,140 Descending Northern Cal TRACON
08:55AM 38.6167 -121.1833 230° Southwest 177 204 1,800 -1,020 Descending Northern Cal TRACON
08:56AM 38.6089 -121.1975 235° Southwest 192 221 1,600 -780 Descending Oakland Center
08:57AM 38.5872 -121.2400 237° Southwest 165 190 800 -780 Descending Oakland Center
08:58AM 38.5633 -121.2803 233° Southwest 147 169 100 -720 Descending Oakland Center